METAR Data

Data at: 2333 UTC 26 Feb 2020

METAR for:CYQI (Yarmouth Arpt, NS, CN)
Text:CYQI 262300Z 19006KT 15SM OVC047 04/03 A3004 RMK SC8 SLP174
Temperature: 4.0°C ( 39°F)
Dewpoint: 3.0°C ( 37°F) [RH = 93%]
Pressure (altimeter):30.04 inches Hg (1017.4 mb) [Sea level pressure: 1017.4 mb]
Winds:from the S (190 degrees) at 7 MPH (6 knots; 3.1 m/s)
Visibility: 15 sm ( 24 km)
Ceiling:4700 feet AGL
Clouds: overcast cloud deck at 4700 feet AGL